Time;durP1;ratioP1;P1;durP2;ratioP2;P2;SDS_P1;SDS_P2;PMS_P1;PMS_P2;Temp;Humidity;BMP_temperature;BMP_pressure;BME280_temperature;BME280_humidity;BME280_pressure;Samples;Min_cycle;Max_cycle;Signal;HPM_P1;HPM_P2
2021/07/11 00:00:13;;;;;;;10.57;6.20;;;16.00;99.90;;;;;;5033045;28;20368;-76
2021/07/11 00:02:38;;;;;;;7.03;6.40;;;16.10;99.90;;;;;;5032877;28;20025;-75
2021/07/11 00:05:07;;;;;;;6.80;6.10;;;16.00;99.90;;;;;;5031632;28;20033;-75
2021/07/11 00:07:32;;;;;;;10.18;6.15;;;15.90;99.90;;;;;;5032819;28;20057;-75
2021/07/11 00:09:59;;;;;;;6.03;5.43;;;15.90;99.90;;;;;;5032865;28;20068;-76
2021/07/11 00:12:26;;;;;;;9.27;6.00;;;15.90;99.90;;;;;;5032268;28;20018;-75
2021/07/11 00:14:53;;;;;;;6.75;6.07;;;15.90;99.90;;;;;;5032317;28;20022;-75
2021/07/11 00:17:19;;;;;;;9.23;5.93;;;15.90;99.90;;;;;;5032460;28;20092;-77
2021/07/11 00:19:45;;;;;;;6.22;5.63;;;15.90;99.90;;;;;;5032608;28;20021;-77
2021/07/11 00:22:11;;;;;;;7.50;5.95;;;15.80;99.90;;;;;;5032497;28;20523;-77
2021/07/11 00:24:39;;;;;;;10.23;5.78;;;15.80;99.90;;;;;;5031050;28;20386;-77
2021/07/11 00:27:06;;;;;;;9.02;5.70;;;15.80;99.90;;;;;;5032309;28;20021;-77
2021/07/11 00:29:31;;;;;;;5.65;5.20;;;16.10;99.90;;;;;;5032359;28;20025;-77
2021/07/11 00:31:57;;;;;;;6.57;5.95;;;15.90;99.90;;;;;;5032032;28;20033;-77
2021/07/11 00:34:22;;;;;;;6.10;5.55;;;15.80;99.90;;;;;;5032105;28;20033;-77
2021/07/11 00:36:48;;;;;;;7.88;5.80;;;15.80;99.90;;;;;;5030880;28;20025;-77
2021/07/11 00:39:14;;;;;;;7.15;5.78;;;15.80;99.90;;;;;;5032332;28;20399;-77
2021/07/11 00:41:40;;;;;;;10.32;5.97;;;15.80;99.90;;;;;;5032186;28;20038;-77
2021/07/11 00:44:07;;;;;;;7.03;5.93;;;15.80;99.90;;;;;;5031082;28;20026;-77
2021/07/11 00:46:36;;;;;;;8.63;5.82;;;15.80;99.90;;;;;;5031623;28;20037;-77
2021/07/11 00:49:04;;;;;;;6.03;5.40;;;15.90;99.90;;;;;;5030852;28;20025;-77
2021/07/11 00:51:30;;;;;;;8.55;6.10;;;15.90;99.90;;;;;;5030597;28;20072;-77
2021/07/11 00:53:55;;;;;;;10.45;7.30;;;15.70;99.90;;;;;;5030683;28;20025;-77
2021/07/11 00:56:21;;;;;;;7.95;6.93;;;15.50;99.90;;;;;;5030432;28;20049;-77
2021/07/11 00:58:46;;;;;;;7.30;6.60;;;15.30;99.90;;;;;;5031919;28;20021;-77
2021/07/11 01:01:23;;;;;;;8.57;6.35;;;15.40;99.90;;;;;;5031720;28;20484;-77
2021/07/11 01:03:54;;;;;;;7.00;5.85;;;15.30;99.90;;;;;;5030510;28;20037;-77
2021/07/11 01:06:21;;;;;;;7.80;6.88;;;15.50;99.90;;;;;;5031585;28;20120;-77
2021/07/11 01:08:57;;;;;;;8.13;6.50;;;15.60;99.90;;;;;;5030530;28;20048;-77
2021/07/11 01:11:25;;;;;;;10.38;7.45;;;15.50;99.90;;;;;;5018602;28;20057;-77
2021/07/11 01:13:54;;;;;;;13.25;10.70;;;14.40;99.90;;;;;;5031765;28;20037;-77
2021/07/11 01:16:24;;;;;;;12.07;9.68;;;14.40;99.90;;;;;;5030145;28;20022;-77
2021/07/11 01:18:51;;;;;;;18.27;11.15;;;15.00;99.90;;;;;;5031644;28;20097;-77
2021/07/11 01:21:19;;;;;;;16.00;13.20;;;15.00;99.90;;;;;;5031717;28;20029;-77
2021/07/11 01:23:47;;;;;;;15.07;13.48;;;14.90;99.90;;;;;;5029885;28;20025;-77
2021/07/11 01:26:15;;;;;;;14.85;13.35;;;14.90;99.90;;;;;;5031236;28;20033;-77
2021/07/11 01:28:42;;;;;;;17.88;14.15;;;15.00;99.90;;;;;;5031632;28;20026;-77
2021/07/11 01:31:09;;;;;;;14.93;13.52;;;15.20;99.90;;;;;;5031501;28;20037;-77
2021/07/11 01:33:39;;;;;;;13.48;11.75;;;15.40;99.90;;;;;;5031562;28;20018;-77
2021/07/11 01:36:07;;;;;;;12.07;10.85;;;15.70;99.90;;;;;;5031284;28;20064;-77
2021/07/11 01:38:34;;;;;;;12.52;11.05;;;15.80;99.90;;;;;;5031405;28;20507;-77
2021/07/11 01:41:02;;;;;;;11.70;9.65;;;15.90;99.90;;;;;;5031476;28;20052;-77
2021/07/11 01:43:29;;;;;;;11.48;9.75;;;16.10;99.90;;;;;;5031400;28;20095;-77
2021/07/11 01:45:55;;;;;;;10.88;9.77;;;16.00;99.90;;;;;;5029962;28;20083;-77
2021/07/11 01:48:22;;;;;;;10.82;9.73;;;16.00;99.90;;;;;;5031349;28;20030;-76
2021/07/11 01:50:52;;;;;;;11.48;10.02;;;16.00;99.90;;;;;;5031358;28;20036;-75
2021/07/11 01:53:29;;;;;;;10.38;9.27;;;16.00;99.90;;;;;;5031388;28;20029;-76
2021/07/11 01:55:55;;;;;;;12.05;10.07;;;15.90;99.90;;;;;;5031186;28;20025;-76
2021/07/11 01:58:21;;;;;;;11.35;10.25;;;15.90;99.90;;;;;;5031234;28;20028;-76
2021/07/11 02:00:48;;;;;;;11.18;10.00;;;15.90;99.90;;;;;;5031398;28;20060;-76
2021/07/11 02:03:19;;;;;;;11.48;9.45;;;15.80;99.90;;;;;;5031078;28;20040;-76
2021/07/11 02:05:46;;;;;;;11.27;9.77;;;15.90;99.90;;;;;;5029701;28;20072;-75
2021/07/11 02:08:15;;;;;;;12.77;10.20;;;15.80;99.90;;;;;;5029904;28;20116;-75
2021/07/11 02:10:45;;;;;;;15.40;10.73;;;15.90;99.90;;;;;;5029733;28;20049;-75
2021/07/11 02:13:41;;;;;;;15.57;11.23;;;15.50;99.90;;;;;;5029905;28;20025;-75
2021/07/11 02:16:32;;;;;;;12.20;10.88;;;15.50;99.90;;;;;;5029557;28;20032;-76
2021/07/11 02:18:59;;;;;;;10.63;9.38;;;15.60;99.90;;;;;;5024304;28;20026;-75
2021/07/11 02:21:26;;;;;;;13.30;10.68;;;15.80;99.90;;;;;;5030948;28;20075;-75
2021/07/11 02:23:53;;;;;;;14.43;10.05;;;15.90;99.90;;;;;;5031013;28;20443;-75
2021/07/11 02:26:20;;;;;;;14.70;10.70;;;15.90;99.90;;;;;;5030609;28;20053;-75
2021/07/11 02:28:49;;;;;;;14.73;11.65;;;15.80;99.90;;;;;;5030819;28;20041;-76
2021/07/11 02:31:15;;;;;;;11.80;10.57;;;15.70;99.90;;;;;;5030950;28;20483;-75
2021/07/11 02:33:43;;;;;;;13.98;11.93;;;15.80;99.90;;;;;;5030943;28;20097;-75
2021/07/11 02:36:24;;;;;;;11.98;10.73;;;15.30;99.90;;;;;;5031152;28;20022;-76
2021/07/11 02:38:55;;;;;;;13.38;11.98;;;15.30;99.90;;;;;;5034542;28;20022;-75
2021/07/11 02:41:25;;;;;;;12.18;10.93;;;15.30;99.90;;;;;;5034474;28;20391;-76
2021/07/11 02:43:52;;;;;;;16.88;12.55;;;15.30;99.90;;;;;;5033024;28;20036;-76
2021/07/11 02:46:22;;;;;;;15.80;11.57;;;15.10;99.90;;;;;;5034060;28;20056;-76
2021/07/11 02:48:50;;;;;;;14.07;12.07;;;15.20;99.90;;;;;;5034373;28;20021;-76
2021/07/11 02:51:21;;;;;;;14.65;12.85;;;15.30;99.90;;;;;;5034036;28;20021;-76
2021/07/11 02:53:48;;;;;;;15.30;12.52;;;15.10;99.90;;;;;;5034350;28;20329;-75
2021/07/11 02:56:17;;;;;;;13.50;12.18;;;15.00;99.90;;;;;;5033852;28;20060;-75
2021/07/11 02:58:46;;;;;;;12.80;11.55;;;15.20;99.90;;;;;;5034194;28;20025;-75
2021/07/11 03:01:12;;;;;;;13.13;11.65;;;15.40;99.90;;;;;;5032747;28;20028;-75
2021/07/11 03:03:40;;;;;;;15.80;12.32;;;15.40;99.90;;;;;;5033921;28;20048;-75
2021/07/11 03:06:05;;;;;;;14.73;11.73;;;15.30;99.90;;;;;;5033540;28;20025;-76
2021/07/11 03:08:31;;;;;;;13.52;11.77;;;15.20;99.90;;;;;;5033828;28;20025;-75
2021/07/11 03:10:57;;;;;;;13.70;12.32;;;15.30;99.90;;;;;;5033820;28;20040;-76
2021/07/11 03:13:25;;;;;;;13.20;11.82;;;15.30;99.90;;;;;;5033832;28;20024;-75
2021/07/11 03:15:50;;;;;;;13.07;11.68;;;15.40;99.90;;;;;;5033871;28;20381;-75
2021/07/11 03:18:17;;;;;;;14.43;11.88;;;15.40;99.90;;;;;;5033847;28;20029;-75
2021/07/11 03:20:46;;;;;;;12.52;11.23;;;15.40;99.90;;;;;;5034088;28;20040;-77
2021/07/11 03:23:12;;;;;;;13.00;11.02;;;15.50;99.90;;;;;;5033896;28;20025;-76
2021/07/11 03:25:39;;;;;;;12.63;10.90;;;15.60;99.90;;;;;;5033383;28;20029;-76
2021/07/11 03:28:06;;;;;;;13.45;12.05;;;15.70;99.90;;;;;;5033535;28;20029;-77
2021/07/11 03:30:36;;;;;;;14.10;11.20;;;15.90;99.90;;;;;;5032117;28;20029;-77
2021/07/11 03:33:05;;;;;;;13.80;11.20;;;16.00;99.90;;;;;;5033541;28;20474;-77
2021/07/11 03:35:50;;;;;;;11.05;9.75;;;16.00;99.90;;;;;;5033184;28;20017;-77
2021/07/11 03:38:31;;;;;;;18.85;12.20;;;15.80;99.90;;;;;;5033429;28;20020;-77
2021/07/11 03:40:57;;;;;;;12.05;9.88;;;15.90;99.90;;;;;;5033378;28;20029;-77
2021/07/11 03:43:25;;;;;;;12.23;10.95;;;15.80;99.90;;;;;;5031840;28;20109;-76
2021/07/11 03:45:55;;;;;;;12.75;10.20;;;16.00;99.90;;;;;;5032956;28;20021;-77
2021/07/11 03:48:24;;;;;;;11.45;10.35;;;16.10;99.90;;;;;;5032906;28;20082;-77
2021/07/11 03:50:54;;;;;;;10.93;9.82;;;16.20;99.90;;;;;;5033078;28;20029;-77
2021/07/11 03:53:26;;;;;;;11.65;10.43;;;16.40;99.90;;;;;;5033043;28;20025;-77
2021/07/11 03:55:54;;;;;;;10.52;9.48;;;16.50;99.90;;;;;;5032659;28;20071;-77
2021/07/11 03:58:21;;;;;;;12.32;10.25;;;16.30;99.90;;;;;;5031745;28;20021;-77
2021/07/11 04:00:48;;;;;;;11.98;9.70;;;16.40;99.90;;;;;;5032874;28;20025;-76
2021/07/11 04:03:14;;;;;;;11.55;10.45;;;16.40;99.90;;;;;;5032796;28;20033;-77
2021/07/11 04:05:41;;;;;;;10.80;9.75;;;16.40;99.90;;;;;;5032590;28;20032;-77
2021/07/11 04:08:17;;;;;;;12.38;10.65;;;16.50;99.90;;;;;;5032824;28;20395;-77
2021/07/11 04:10:44;;;;;;;11.52;10.40;;;16.50;99.90;;;;;;5034624;28;20033;-77
2021/07/11 04:13:10;;;;;;;10.73;9.63;;;16.50;99.90;;;;;;5032750;28;20022;-76
2021/07/11 04:15:36;;;;;;;10.90;9.80;;;16.50;99.90;;;;;;5032348;28;20110;-77
2021/07/11 04:18:05;;;;;;;12.23;10.15;;;16.50;99.90;;;;;;5032520;28;20021;-77
2021/07/11 04:20:32;;;;;;;11.93;10.63;;;16.50;99.90;;;;;;5032445;28;20388;-76
2021/07/11 04:23:00;;;;;;;12.82;10.85;;;16.60;99.90;;;;;;5031129;28;20116;-77
2021/07/11 04:25:31;;;;;;;12.40;10.32;;;16.50;99.90;;;;;;5032127;28;20048;-77
2021/07/11 04:27:57;;;;;;;11.40;10.35;;;16.50;99.90;;;;;;5032560;28;20565;-76
2021/07/11 04:30:23;;;;;;;10.88;9.77;;;16.60;99.90;;;;;;5031140;28;20029;-76
2021/07/11 04:32:49;;;;;;;12.25;10.68;;;16.70;99.90;;;;;;5032514;28;20075;-75
2021/07/11 04:35:15;;;;;;;11.55;10.45;;;16.50;99.90;;;;;;5032450;28;20109;-76
2021/07/11 04:37:40;;;;;;;11.52;10.32;;;16.50;99.90;;;;;;5032219;28;20018;-76
2021/07/11 04:40:07;;;;;;;12.00;10.80;;;16.40;99.90;;;;;;5032322;28;20033;-76
2021/07/11 04:42:32;;;;;;;14.52;11.25;;;16.50;99.90;;;;;;5032266;28;20025;-75
2021/07/11 04:45:01;;;;;;;14.77;11.73;;;16.40;99.90;;;;;;5032369;28;20430;-76
2021/07/11 04:47:27;;;;;;;14.52;11.40;;;16.40;99.90;;;;;;5032213;28;20028;-75
2021/07/11 04:49:52;;;;;;;13.82;12.23;;;16.40;99.90;;;;;;5031087;28;20021;-75
2021/07/11 04:52:18;;;;;;;14.43;12.90;;;16.40;99.90;;;;;;5032082;28;20021;-75
2021/07/11 04:54:44;;;;;;;14.60;13.10;;;16.50;99.90;;;;;;5030834;28;20432;-75
2021/07/11 04:57:09;;;;;;;14.88;12.90;;;16.50;99.90;;;;;;5030765;28;20044;-75
2021/07/11 04:59:35;;;;;;;15.30;13.80;;;16.50;99.90;;;;;;5031423;28;20032;-75
2021/07/11 05:02:00;;;;;;;13.98;12.25;;;16.50;99.90;;;;;;5032044;28;20108;-75
2021/07/11 05:04:26;;;;;;;15.15;13.50;;;16.50;99.90;;;;;;5031740;28;20039;-75
2021/07/11 05:06:51;;;;;;;15.77;13.15;;;16.50;99.90;;;;;;5031818;28;20526;-76
2021/07/11 05:09:17;;;;;;;17.50;14.15;;;16.50;99.90;;;;;;5038695;28;20025;-75
2021/07/11 05:11:42;;;;;;;15.90;13.63;;;16.50;99.90;;;;;;5050502;28;20028;-76
2021/07/11 05:14:08;;;;;;;17.30;14.63;;;16.60;99.90;;;;;;5035692;28;20022;-75
2021/07/11 05:16:33;;;;;;;17.35;14.48;;;16.60;99.90;;;;;;5031925;28;20480;-75
2021/07/11 05:18:59;;;;;;;18.63;15.13;;;16.60;99.90;;;;;;5031803;28;20088;-76
2021/07/11 05:21:25;;;;;;;16.58;14.88;;;16.60;99.90;;;;;;5031672;28;20032;-76
2021/07/11 05:23:51;;;;;;;17.83;14.60;;;16.60;99.90;;;;;;5031749;28;20428;-75
2021/07/11 05:26:16;;;;;;;16.35;14.65;;;16.70;99.90;;;;;;5031681;28;20399;-75
2021/07/11 05:28:44;;;;;;;16.33;14.77;;;16.50;99.90;;;;;;5031716;28;20052;-75
2021/07/11 05:31:11;;;;;;;16.55;14.75;;;16.50;99.90;;;;;;5030317;28;20033;-75
2021/07/11 05:33:36;;;;;;;18.27;15.15;;;16.50;99.90;;;;;;5031616;28;20026;-75
2021/07/11 05:36:02;;;;;;;19.05;15.65;;;16.60;99.90;;;;;;5031552;28;20030;-75
2021/07/11 05:38:28;;;;;;;15.48;14.00;;;16.70;99.90;;;;;;5031582;28;20048;-75
2021/07/11 05:40:53;;;;;;;17.42;14.93;;;16.70;99.90;;;;;;5031563;28;20029;-76
2021/07/11 05:43:19;;;;;;;16.63;14.77;;;16.80;99.90;;;;;;5030532;28;20435;-76
2021/07/11 05:45:45;;;;;;;17.15;15.45;;;16.80;99.90;;;;;;5031542;28;20048;-75
2021/07/11 05:48:10;;;;;;;17.45;15.57;;;16.80;99.90;;;;;;5031587;28;20112;-75
2021/07/11 05:50:36;;;;;;;18.38;16.45;;;16.80;99.90;;;;;;5030218;28;20373;-75
2021/07/11 05:53:02;;;;;;;16.45;14.73;;;16.90;99.90;;;;;;5031422;28;20538;-75
2021/07/11 05:55:27;;;;;;;16.58;13.93;;;16.90;99.90;;;;;;5031447;28;20391;-75
2021/07/11 05:57:53;;;;;;;18.02;15.35;;;16.80;99.90;;;;;;5031358;28;20075;-76
2021/07/11 06:00:19;;;;;;;20.13;16.80;;;17.00;99.90;;;;;;5031476;28;20327;-76
2021/07/11 06:02:45;;;;;;;16.15;14.13;;;16.90;99.90;;;;;;5030057;28;20398;-75
2021/07/11 06:05:11;;;;;;;16.13;14.43;;;16.80;99.90;;;;;;5031284;28;20487;-76
2021/07/11 06:07:36;;;;;;;15.05;13.55;;;16.70;99.90;;;;;;5031470;28;20025;-75
2021/07/11 06:10:05;;;;;;;14.18;12.68;;;16.70;99.90;;;;;;5044578;28;20021;-75
2021/07/11 06:12:31;;;;;;;15.02;13.43;;;16.70;99.90;;;;;;5055027;28;20479;-75
2021/07/11 06:14:56;;;;;;;13.85;12.35;;;16.70;99.90;;;;;;5054914;28;20067;-75
2021/07/11 06:17:23;;;;;;;14.60;13.10;;;16.80;99.90;;;;;;5038705;28;20037;-75
2021/07/11 06:19:48;;;;;;;14.02;12.63;;;16.80;99.90;;;;;;5034900;28;20471;-75
2021/07/11 06:22:14;;;;;;;13.73;12.32;;;16.90;99.90;;;;;;5034874;28;20499;-75
2021/07/11 06:24:39;;;;;;;13.00;11.65;;;16.90;99.90;;;;;;5034894;28;20033;-75
2021/07/11 06:27:05;;;;;;;12.00;10.70;;;17.10;99.90;;;;;;5034780;28;20108;-75
2021/07/11 06:29:30;;;;;;;12.50;11.20;;;17.00;99.90;;;;;;5034720;28;20035;-75
2021/07/11 06:31:56;;;;;;;12.20;10.32;;;17.10;99.90;;;;;;5034785;28;20494;-75
2021/07/11 06:34:22;;;;;;;13.98;10.50;;;17.20;99.90;;;;;;5034754;28;20041;-75
2021/07/11 06:36:47;;;;;;;11.50;9.63;;;17.20;99.90;;;;;;5034429;28;20563;-76
2021/07/11 06:39:13;;;;;;;8.60;7.70;;;17.30;99.90;;;;;;5034972;28;20124;-75
2021/07/11 06:41:39;;;;;;;9.25;8.35;;;17.10;99.90;;;;;;5034527;28;20088;-75
2021/07/11 06:44:04;;;;;;;9.45;7.85;;;17.10;99.90;;;;;;5034923;28;20049;-75
2021/07/11 06:46:30;;;;;;;7.53;6.72;;;17.10;99.90;;;;;;5034386;28;20030;-75
2021/07/11 06:48:55;;;;;;;7.35;6.68;;;17.20;99.90;;;;;;5034387;28;20549;-76
2021/07/11 06:51:21;;;;;;;7.57;6.88;;;17.00;99.90;;;;;;5033085;28;20079;-75
2021/07/11 06:53:46;;;;;;;8.20;7.50;;;17.00;99.90;;;;;;5034281;28;20096;-75
2021/07/11 06:56:12;;;;;;;7.57;6.60;;;17.10;99.90;;;;;;5034079;28;20471;-76
2021/07/11 06:58:37;;;;;;;7.63;5.88;;;17.20;99.90;;;;;;5032980;28;20021;-75
2021/07/11 07:01:03;;;;;;;7.55;6.40;;;17.00;99.90;;;;;;5032882;28;20053;-76
2021/07/11 07:03:28;;;;;;;7.72;6.50;;;17.00;99.90;;;;;;5033978;28;20037;-75
2021/07/11 07:05:54;;;;;;;5.65;5.15;;;17.10;99.90;;;;;;5034081;28;20033;-76
2021/07/11 07:08:20;;;;;;;7.03;5.35;;;17.00;99.90;;;;;;5034079;28;20025;-75
2021/07/11 07:10:46;;;;;;;6.53;5.93;;;17.00;99.90;;;;;;5037923;28;20026;-76
2021/07/11 07:13:11;;;;;;;6.50;5.68;;;17.00;99.90;;;;;;5032876;28;20026;-75
2021/07/11 07:15:37;;;;;;;6.22;5.63;;;16.90;99.90;;;;;;5033917;28;20052;-75
2021/07/11 07:18:03;;;;;;;6.25;5.47;;;16.90;99.90;;;;;;5033797;28;20018;-77
2021/07/11 07:20:29;;;;;;;7.20;6.00;;;16.90;99.90;;;;;;5033599;28;20091;-77
2021/07/11 07:22:54;;;;;;;7.05;6.43;;;16.90;99.90;;;;;;5033231;28;20100;-76
2021/07/11 07:25:20;;;;;;;6.72;6.00;;;16.90;99.90;;;;;;5032133;28;20045;-75
2021/07/11 07:27:46;;;;;;;7.10;6.50;;;16.90;99.90;;;;;;5033533;28;20033;-75
2021/07/11 07:30:20;;;;;;;6.88;6.18;;;17.00;99.90;;;;;;5033975;28;20025;-75
2021/07/11 07:32:49;;;;;;;6.65;6.05;;;17.00;99.90;;;;;;5033415;28;20079;-75
2021/07/11 07:35:20;;;;;;;7.03;6.32;;;16.90;99.90;;;;;;5033194;28;20022;-75
2021/07/11 07:37:47;;;;;;;6.32;5.72;;;16.90;99.90;;;;;;5033357;28;20068;-75
2021/07/11 07:40:15;;;;;;;6.65;5.93;;;17.00;99.90;;;;;;5033306;28;20025;-75
2021/07/11 07:42:40;;;;;;;5.97;5.38;;;16.80;99.90;;;;;;5031989;28;20053;-75
2021/07/11 07:45:07;;;;;;;6.45;5.85;;;16.80;99.90;;;;;;5032995;28;20064;-75
2021/07/11 07:47:32;;;;;;;6.10;5.53;;;16.80;99.90;;;;;;5033189;28;20483;-75
2021/07/11 07:49:58;;;;;;;7.22;6.25;;;16.90;99.90;;;;;;5033128;28;20074;-75
2021/07/11 07:52:24;;;;;;;5.70;5.28;;;16.90;99.90;;;;;;5031758;28;20503;-75
2021/07/11 07:54:50;;;;;;;5.32;4.93;;;16.90;99.90;;;;;;5032832;28;20086;-75
2021/07/11 07:57:15;;;;;;;5.82;5.32;;;16.90;99.90;;;;;;5032962;28;20093;-75
2021/07/11 07:59:42;;;;;;;6.05;5.43;;;17.00;99.90;;;;;;5032873;28;20446;-75
2021/07/11 08:02:08;;;;;;;5.97;5.38;;;16.90;99.90;;;;;;5031724;28;20112;-75
2021/07/11 08:04:33;;;;;;;5.65;5.05;;;17.00;99.90;;;;;;5032575;28;20352;-75
2021/07/11 08:06:59;;;;;;;5.57;5.07;;;17.30;99.90;;;;;;5032895;28;20029;-75
2021/07/11 08:09:25;;;;;;;6.32;5.10;;;17.30;99.90;;;;;;5036627;28;20128;-75
2021/07/11 08:11:51;;;;;;;5.63;4.80;;;17.30;99.90;;;;;;5031404;28;20033;-75
2021/07/11 08:14:16;;;;;;;5.28;4.88;;;17.20;99.90;;;;;;5032531;28;20438;-75
2021/07/11 08:16:42;;;;;;;5.63;5.05;;;17.20;99.90;;;;;;5032821;28;20022;-75
2021/07/11 08:19:09;;;;;;;5.57;4.28;;;17.20;99.90;;;;;;5032731;28;20108;-75
2021/07/11 08:21:34;;;;;;;4.63;3.92;;;17.10;99.90;;;;;;5032779;28;20026;-76
2021/07/11 08:24:00;;;;;;;4.10;3.55;;;16.90;99.90;;;;;;5031765;28;20400;-76
2021/07/11 08:26:26;;;;;;;4.28;3.88;;;16.90;99.90;;;;;;5032448;28;20400;-76
2021/07/11 08:28:51;;;;;;;4.78;4.30;;;16.80;99.90;;;;;;5032514;28;20438;-76
2021/07/11 08:31:17;;;;;;;6.47;4.80;;;16.90;99.90;;;;;;5032526;28;20034;-76
2021/07/11 08:33:42;;;;;;;5.70;5.15;;;17.00;99.90;;;;;;5031700;28;20070;-75
2021/07/11 08:36:08;;;;;;;5.32;4.82;;;16.90;99.90;;;;;;5032545;28;20079;-76
2021/07/11 08:38:33;;;;;;;4.18;3.83;;;17.00;99.90;;;;;;5032333;28;20083;-76
2021/07/11 08:40:59;;;;;;;5.50;4.80;;;16.90;99.90;;;;;;5032449;28;20040;-75
2021/07/11 08:43:25;;;;;;;7.95;5.13;;;16.90;99.90;;;;;;5032435;28;20475;-76
2021/07/11 08:45:51;;;;;;;4.75;4.25;;;17.00;99.90;;;;;;5030922;28;20032;-75
2021/07/11 08:48:17;;;;;;;6.05;5.35;;;17.00;99.90;;;;;;5032274;28;20458;-75
2021/07/11 08:50:42;;;;;;;6.50;5.90;;;17.00;99.90;;;;;;5032117;28;20033;-75
2021/07/11 08:53:13;;;;;;;4.60;4.13;;;17.00;99.90;;;;;;5030862;28;20032;-76
2021/07/11 08:55:40;;;;;;;4.82;4.32;;;16.80;99.90;;;;;;5032077;28;20025;-76
2021/07/11 08:58:05;;;;;;;4.22;3.83;;;16.80;99.90;;;;;;5031782;28;20022;-76
2021/07/11 09:00:33;;;;;;;6.40;4.63;;;16.80;99.90;;;;;;5030805;28;20028;-76
2021/07/11 09:02:59;;;;;;;4.55;4.13;;;16.80;99.90;;;;;;5031888;28;20052;-76
2021/07/11 09:05:28;;;;;;;4.30;3.90;;;16.80;99.90;;;;;;5030705;28;20026;-76
2021/07/11 09:08:14;;;;;;;5.80;4.25;;;16.80;99.90;;;;;;5032322;28;20083;-76
2021/07/11 09:10:42;;;;;;;;;;;16.90;99.90;;;;;;5032177;28;20026;-76
2021/07/11 09:13:11;;;;;;;4.15;3.72;;;16.90;99.90;;;;;;5031841;28;19945;-75
2021/07/11 09:15:39;;;;;;;5.10;4.55;;;16.80;99.90;;;;;;5031803;28;20018;-76
2021/07/11 09:18:05;;;;;;;4.93;4.28;;;16.80;99.90;;;;;;5031804;28;20021;-76
2021/07/11 09:20:31;;;;;;;4.60;4.05;;;16.70;99.90;;;;;;5032142;28;20101;-76
2021/07/11 09:22:59;;;;;;;5.55;3.90;;;16.70;99.90;;;;;;5031573;28;20555;-75
2021/07/11 09:25:24;;;;;;;4.70;4.20;;;16.70;99.90;;;;;;5031310;28;20030;-75
2021/07/11 09:27:50;;;;;;;4.22;3.83;;;16.70;99.90;;;;;;5030240;28;20024;-76
2021/07/11 09:30:17;;;;;;;4.75;4.30;;;16.70;99.90;;;;;;5031508;28;20021;-75
2021/07/11 09:32:43;;;;;;;4.80;4.40;;;16.70;99.90;;;;;;5031467;28;20032;-75
2021/07/11 09:35:12;;;;;;;4.68;4.28;;;16.80;99.90;;;;;;5031230;28;20029;-75
2021/07/11 09:37:40;;;;;;;4.28;3.88;;;16.90;99.90;;;;;;5031338;28;20018;-75
2021/07/11 09:40:08;;;;;;;4.15;3.85;;;16.90;99.90;;;;;;5031453;28;20032;-75
2021/07/11 09:42:38;;;;;;;4.65;4.25;;;17.00;99.90;;;;;;5031663;28;20040;-75
2021/07/11 09:45:15;;;;;;;4.53;3.92;;;17.00;99.90;;;;;;5031723;28;20033;-75
2021/07/11 09:47:41;;;;;;;4.07;3.78;;;17.10;99.90;;;;;;5035483;28;20468;-75
2021/07/11 09:50:12;;;;;;;4.70;3.63;;;17.00;99.90;;;;;;5035342;28;20057;-75
2021/07/11 09:52:43;;;;;;;3.90;3.60;;;17.00;99.90;;;;;;5035319;28;20075;-75
2021/07/11 09:55:20;;;;;;;4.20;3.80;;;17.00;99.90;;;;;;5035102;28;20021;-76
2021/07/11 09:57:53;;;;;;;5.57;4.43;;;16.90;99.90;;;;;;5035190;28;20014;-75
2021/07/11 10:00:35;;;;;;;4.60;4.20;;;16.90;99.90;;;;;;5035271;28;20056;-76
2021/07/11 10:03:05;;;;;;;4.40;4.00;;;16.90;99.90;;;;;;5035044;28;20488;-75
2021/07/11 10:05:31;;;;;;;4.78;4.38;;;16.90;99.90;;;;;;5035196;28;20395;-75
2021/07/11 10:07:58;;;;;;;4.57;4.05;;;17.00;99.90;;;;;;5035111;28;20104;-76
2021/07/11 10:10:27;;;;;;;4.88;3.72;;;17.20;99.90;;;;;;5035112;28;20030;-76
2021/07/11 10:12:53;;;;;;;4.78;3.97;;;17.20;99.90;;;;;;5035266;28;20041;-75
2021/07/11 10:15:22;;;;;;;5.32;4.50;;;17.30;99.90;;;;;;5034850;28;20502;-75
2021/07/11 10:17:54;;;;;;;4.10;3.70;;;17.70;99.90;;;;;;5034987;28;20033;-75
2021/07/11 10:20:22;;;;;;;6.28;5.68;;;17.70;99.90;;;;;;5034778;28;20021;-75
2021/07/11 10:22:52;;;;;;;4.70;4.22;;;17.70;99.90;;;;;;5034924;28;20037;-75
2021/07/11 10:25:23;;;;;;;6.03;5.53;;;17.60;99.90;;;;;;5034629;28;20087;-76
2021/07/11 10:28:07;;;;;;;4.72;3.75;;;17.40;99.90;;;;;;5033410;28;20033;-75
2021/07/11 10:30:34;;;;;;;5.13;4.55;;;17.30;99.90;;;;;;5034561;28;20025;-75
2021/07/11 10:33:11;;;;;;;3.80;3.38;;;17.30;99.90;;;;;;5034648;28;20541;-75
2021/07/11 10:36:07;;;;;;;3.78;3.42;;;17.40;99.90;;;;;;5034316;28;20029;-75
2021/07/11 10:38:39;;;;;;;6.13;3.90;;;17.30;99.90;;;;;;5034231;28;20044;-75
2021/07/11 10:41:18;;;;;;;4.93;3.92;;;17.30;99.90;;;;;;5034485;28;20029;-75
2021/07/11 10:43:58;;;;;;;4.45;4.05;;;17.30;99.90;;;;;;5034399;28;20041;-75
2021/07/11 10:46:31;;;;;;;5.78;4.15;;;17.40;99.90;;;;;;5032681;28;20128;-76
2021/07/11 10:49:07;;;;;;;4.55;4.15;;;17.40;99.90;;;;;;5034383;28;20033;-75
2021/07/11 10:51:39;;;;;;;;;;;17.50;99.90;;;;;;5034728;28;20384;-76
2021/07/11 10:54:05;;;;;;;4.55;4.15;;;17.50;99.90;;;;;;5034236;28;20403;-75
2021/07/11 10:56:41;;;;;;;7.15;5.80;;;17.50;99.90;;;;;;5033336;28;20034;-75
2021/07/11 10:59:07;;;;;;;5.53;5.03;;;17.70;99.90;;;;;;5033901;28;20380;-75
2021/07/11 11:01:37;;;;;;;6.88;5.47;;;17.60;99.90;;;;;;5034020;28;20030;-75
2021/07/11 11:04:03;;;;;;;5.70;5.20;;;17.60;99.90;;;;;;5032743;28;20048;-75
2021/07/11 11:06:39;;;;;;;5.65;4.97;;;17.60;99.90;;;;;;5033710;28;20029;-76
2021/07/11 11:09:04;;;;;;;6.63;6.07;;;17.90;99.90;;;;;;5032807;28;20033;-75
2021/07/11 11:11:30;;;;;;;4.82;4.40;;;17.90;99.90;;;;;;5033758;28;20146;-75
2021/07/11 11:14:04;;;;;;;8.52;5.63;;;17.60;99.90;;;;;;5032653;28;20032;-75
2021/07/11 11:16:45;;;;;;;5.60;5.10;;;17.80;99.90;;;;;;5033495;28;20097;-76
2021/07/11 11:19:14;;;;;;;4.53;4.13;;;17.90;99.90;;;;;;5033783;28;20076;-75
2021/07/11 11:21:40;;;;;;;4.80;4.40;;;17.90;99.90;;;;;;5032458;28;20030;-76
2021/07/11 11:24:06;;;;;;;5.18;4.72;;;17.70;99.90;;;;;;5032533;28;20387;-76
2021/07/11 11:26:31;;;;;;;4.90;4.50;;;17.70;99.90;;;;;;5032147;28;20025;-76
2021/07/11 11:28:59;;;;;;;5.13;4.45;;;17.70;99.90;;;;;;5033734;28;20491;-76
2021/07/11 11:31:29;;;;;;;5.50;5.00;;;17.70;99.90;;;;;;5033456;28;20116;-75
2021/07/11 11:33:59;;;;;;;5.75;5.25;;;17.80;99.90;;;;;;5033607;28;20064;-75
2021/07/11 11:36:47;;;;;;;7.57;5.15;;;17.70;99.90;;;;;;5033072;28;20033;-76
2021/07/11 11:39:19;;;;;;;7.03;6.32;;;17.60;99.90;;;;;;5033450;28;20022;-75
2021/07/11 11:41:46;;;;;;;5.63;5.13;;;17.70;99.90;;;;;;5033317;28;20033;-76
2021/07/11 11:44:15;;;;;;;5.40;4.90;;;18.00;99.90;;;;;;5032048;28;20036;-77
2021/07/11 11:46:44;;;;;;;6.45;5.65;;;17.90;99.90;;;;;;5031591;28;20053;-77
2021/07/11 11:49:15;;;;;;;6.53;5.93;;;17.90;99.90;;;;;;5033232;28;20088;-77
2021/07/11 11:51:47;;;;;;;5.97;5.03;;;18.00;99.90;;;;;;5031647;28;20026;-77
2021/07/11 11:54:31;;;;;;;5.28;4.30;;;18.00;99.90;;;;;;5031819;28;20396;-77
2021/07/11 11:56:57;;;;;;;5.15;4.65;;;17.90;99.90;;;;;;5032976;28;20025;-77
2021/07/11 11:59:23;;;;;;;6.35;4.95;;;17.90;99.90;;;;;;5032811;28;20038;-77
2021/07/11 12:01:56;;;;;;;5.70;5.20;;;17.90;99.90;;;;;;5032994;28;20048;-77
2021/07/11 12:04:23;;;;;;;6.00;5.38;;;17.90;99.90;;;;;;5032524;28;20547;-77
2021/07/11 12:06:51;;;;;;;6.20;5.60;;;18.00;99.90;;;;;;5032906;28;20397;-75
2021/07/11 12:09:18;;;;;;;6.47;5.88;;;18.10;99.90;;;;;;5032836;28;20029;-75
2021/07/11 12:11:54;;;;;;;6.57;5.80;;;18.20;99.90;;;;;;5031633;28;20021;-75
2021/07/11 12:14:20;;;;;;;6.75;6.05;;;18.30;99.90;;;;;;5031646;28;20057;-76
2021/07/11 12:16:56;;;;;;;7.00;6.40;;;18.20;99.90;;;;;;5031735;28;20045;-75
2021/07/11 12:19:22;;;;;;;6.50;5.90;;;18.40;99.90;;;;;;5032855;28;20022;-75
2021/07/11 12:21:48;;;;;;;7.57;6.50;;;18.40;99.90;;;;;;5032853;28;20041;-75
2021/07/11 12:24:18;;;;;;;6.72;5.38;;;18.50;99.90;;;;;;5031454;28;20029;-76
2021/07/11 12:26:54;;;;;;;8.57;6.10;;;18.40;99.90;;;;;;5032597;28;20060;-76
2021/07/11 12:29:28;;;;;;;6.70;6.10;;;18.60;99.90;;;;;;5013022;28;20285;-75
2021/07/11 12:32:12;;;;;;;7.10;6.40;;;18.80;99.90;;;;;;5012882;28;20036;-76
2021/07/11 12:34:37;;;;;;;6.60;6.00;;;18.80;99.90;;;;;;5011565;28;20028;-75
2021/07/11 12:37:05;;;;;;;6.50;5.97;;;19.00;99.90;;;;;;5012714;28;20100;-76
2021/07/11 12:39:32;;;;;;;5.80;5.30;;;19.40;99.90;;;;;;5012643;28;20026;-75
2021/07/11 12:41:57;;;;;;;6.28;5.60;;;19.00;99.90;;;;;;5030493;28;20368;-76